sensor_id;sensor_type;location;lat;lon;timestamp;P1;durP1;ratioP1;P2;durP2;ratioP2
72584;SDS011;60618;40.084;32.908;2023-05-07T00:01:33;7.05;;;1.55;;
72584;SDS011;60618;40.084;32.908;2023-05-07T00:04:00;3.97;;;1.30;;
72584;SDS011;60618;40.084;32.908;2023-05-07T00:06:27;4.47;;;1.77;;
72584;SDS011;60618;40.084;32.908;2023-05-07T00:08:54;7.10;;;2.03;;
72584;SDS011;60618;40.084;32.908;2023-05-07T00:11:22;5.13;;;1.70;;
72584;SDS011;60618;40.084;32.908;2023-05-07T00:13:49;5.05;;;1.80;;
72584;SDS011;60618;40.084;32.908;2023-05-07T00:16:16;6.20;;;2.00;;
72584;SDS011;60618;40.084;32.908;2023-05-07T00:18:43;5.60;;;2.40;;
72584;SDS011;60618;40.084;32.908;2023-05-07T00:21:10;4.85;;;2.13;;
72584;SDS011;60618;40.084;32.908;2023-05-07T00:23:37;6.18;;;2.40;;
72584;SDS011;60618;40.084;32.908;2023-05-07T00:26:04;5.50;;;2.72;;
72584;SDS011;60618;40.084;32.908;2023-05-07T00:28:31;7.05;;;3.30;;
72584;SDS011;60618;40.084;32.908;2023-05-07T00:30:58;7.73;;;3.80;;
72584;SDS011;60618;40.084;32.908;2023-05-07T00:33:25;7.35;;;3.00;;
72584;SDS011;60618;40.084;32.908;2023-05-07T00:35:52;5.32;;;2.38;;
72584;SDS011;60618;40.084;32.908;2023-05-07T00:38:19;5.85;;;2.50;;
72584;SDS011;60618;40.084;32.908;2023-05-07T00:40:46;6.43;;;2.20;;
72584;SDS011;60618;40.084;32.908;2023-05-07T00:43:13;5.63;;;2.23;;
72584;SDS011;60618;40.084;32.908;2023-05-07T00:45:40;5.57;;;2.00;;
72584;SDS011;60618;40.084;32.908;2023-05-07T00:48:07;4.75;;;1.90;;
72584;SDS011;60618;40.084;32.908;2023-05-07T00:50:34;7.20;;;2.47;;
72584;SDS011;60618;40.084;32.908;2023-05-07T00:53:01;9.32;;;2.90;;
72584;SDS011;60618;40.084;32.908;2023-05-07T00:55:28;9.97;;;2.47;;
72584;SDS011;60618;40.084;32.908;2023-05-07T00:57:55;5.32;;;1.63;;
72584;SDS011;60618;40.084;32.908;2023-05-07T01:00:22;7.35;;;1.90;;
72584;SDS011;60618;40.084;32.908;2023-05-07T01:02:49;6.95;;;2.50;;
72584;SDS011;60618;40.084;32.908;2023-05-07T01:05:17;8.90;;;2.45;;
72584;SDS011;60618;40.084;32.908;2023-05-07T01:07:47;6.63;;;2.20;;
72584;SDS011;60618;40.084;32.908;2023-05-07T01:10:14;5.75;;;2.60;;
72584;SDS011;60618;40.084;32.908;2023-05-07T01:12:41;9.65;;;3.45;;
72584;SDS011;60618;40.084;32.908;2023-05-07T01:15:10;10.65;;;3.28;;
72584;SDS011;60618;40.084;32.908;2023-05-07T01:17:40;9.93;;;3.30;;
72584;SDS011;60618;40.084;32.908;2023-05-07T01:20:09;8.33;;;2.80;;
72584;SDS011;60618;40.084;32.908;2023-05-07T01:22:37;6.85;;;2.50;;
72584;SDS011;60618;40.084;32.908;2023-05-07T01:25:05;7.68;;;2.53;;
72584;SDS011;60618;40.084;32.908;2023-05-07T01:27:33;5.20;;;2.10;;
72584;SDS011;60618;40.084;32.908;2023-05-07T01:30:01;8.30;;;2.10;;
72584;SDS011;60618;40.084;32.908;2023-05-07T01:32:38;5.87;;;2.30;;
72584;SDS011;60618;40.084;32.908;2023-05-07T01:35:07;5.47;;;2.20;;
72584;SDS011;60618;40.084;32.908;2023-05-07T01:37:39;7.57;;;2.00;;
72584;SDS011;60618;40.084;32.908;2023-05-07T01:40:07;5.45;;;1.70;;
72584;SDS011;60618;40.084;32.908;2023-05-07T01:42:35;7.38;;;2.60;;
72584;SDS011;60618;40.084;32.908;2023-05-07T01:45:02;7.17;;;2.57;;
72584;SDS011;60618;40.084;32.908;2023-05-07T01:47:29;4.78;;;1.73;;
72584;SDS011;60618;40.084;32.908;2023-05-07T01:49:57;5.50;;;2.20;;
72584;SDS011;60618;40.084;32.908;2023-05-07T01:52:24;3.80;;;1.40;;
72584;SDS011;60618;40.084;32.908;2023-05-07T01:54:51;3.90;;;1.55;;
72584;SDS011;60618;40.084;32.908;2023-05-07T01:57:18;4.43;;;1.73;;
72584;SDS011;60618;40.084;32.908;2023-05-07T01:59:45;4.07;;;1.60;;
72584;SDS011;60618;40.084;32.908;2023-05-07T02:02:12;6.78;;;1.80;;
72584;SDS011;60618;40.084;32.908;2023-05-07T02:04:39;7.00;;;1.85;;
72584;SDS011;60618;40.084;32.908;2023-05-07T02:07:06;5.75;;;1.90;;
72584;SDS011;60618;40.084;32.908;2023-05-07T02:09:33;5.70;;;2.00;;
72584;SDS011;60618;40.084;32.908;2023-05-07T02:11:59;5.90;;;2.03;;
72584;SDS011;60618;40.084;32.908;2023-05-07T02:14:26;4.60;;;2.00;;
72584;SDS011;60618;40.084;32.908;2023-05-07T02:16:53;7.28;;;2.50;;
72584;SDS011;60618;40.084;32.908;2023-05-07T02:19:20;7.57;;;2.65;;
72584;SDS011;60618;40.084;32.908;2023-05-07T02:21:47;6.30;;;2.43;;
72584;SDS011;60618;40.084;32.908;2023-05-07T02:24:14;6.13;;;2.33;;
72584;SDS011;60618;40.084;32.908;2023-05-07T02:26:41;7.07;;;2.58;;
72584;SDS011;60618;40.084;32.908;2023-05-07T02:29:08;6.63;;;2.50;;
72584;SDS011;60618;40.084;32.908;2023-05-07T02:31:35;4.80;;;2.15;;
72584;SDS011;60618;40.084;32.908;2023-05-07T02:34:02;5.17;;;2.00;;
72584;SDS011;60618;40.084;32.908;2023-05-07T02:36:29;6.07;;;1.80;;
72584;SDS011;60618;40.084;32.908;2023-05-07T02:38:56;5.50;;;1.90;;
72584;SDS011;60618;40.084;32.908;2023-05-07T02:41:23;4.32;;;1.70;;
72584;SDS011;60618;40.084;32.908;2023-05-07T02:43:50;4.88;;;2.00;;
72584;SDS011;60618;40.084;32.908;2023-05-07T02:46:17;5.30;;;1.90;;
72584;SDS011;60618;40.084;32.908;2023-05-07T02:48:44;6.30;;;2.28;;
72584;SDS011;60618;40.084;32.908;2023-05-07T02:51:10;5.60;;;2.70;;
72584;SDS011;60618;40.084;32.908;2023-05-07T02:53:37;4.90;;;2.20;;
72584;SDS011;60618;40.084;32.908;2023-05-07T02:56:04;6.47;;;2.70;;
72584;SDS011;60618;40.084;32.908;2023-05-07T02:58:31;5.70;;;2.30;;
72584;SDS011;60618;40.084;32.908;2023-05-07T03:00:58;5.55;;;2.70;;
72584;SDS011;60618;40.084;32.908;2023-05-07T03:03:26;6.47;;;2.75;;
72584;SDS011;60618;40.084;32.908;2023-05-07T03:05:52;6.15;;;2.85;;
72584;SDS011;60618;40.084;32.908;2023-05-07T03:08:19;6.20;;;3.10;;
72584;SDS011;60618;40.084;32.908;2023-05-07T03:10:46;6.47;;;3.23;;
72584;SDS011;60618;40.084;32.908;2023-05-07T03:13:13;6.10;;;2.90;;
72584;SDS011;60618;40.084;32.908;2023-05-07T03:15:41;7.22;;;3.20;;
72584;SDS011;60618;40.084;32.908;2023-05-07T03:18:07;5.65;;;3.15;;
72584;SDS011;60618;40.084;32.908;2023-05-07T03:20:35;6.07;;;3.17;;
72584;SDS011;60618;40.084;32.908;2023-05-07T03:23:02;6.43;;;3.30;;
72584;SDS011;60618;40.084;32.908;2023-05-07T03:25:29;5.88;;;2.80;;
72584;SDS011;60618;40.084;32.908;2023-05-07T03:27:56;5.35;;;3.00;;
72584;SDS011;60618;40.084;32.908;2023-05-07T03:30:23;5.72;;;3.20;;
72584;SDS011;60618;40.084;32.908;2023-05-07T03:32:50;5.75;;;3.30;;
72584;SDS011;60618;40.084;32.908;2023-05-07T03:35:17;6.40;;;3.07;;
72584;SDS011;60618;40.084;32.908;2023-05-07T03:37:44;5.93;;;3.05;;
72584;SDS011;60618;40.084;32.908;2023-05-07T03:40:11;6.43;;;3.10;;
72584;SDS011;60618;40.084;32.908;2023-05-07T03:42:39;5.53;;;2.97;;
72584;SDS011;60618;40.084;32.908;2023-05-07T03:45:06;6.32;;;2.83;;
72584;SDS011;60618;40.084;32.908;2023-05-07T03:47:33;5.50;;;2.97;;
72584;SDS011;60618;40.084;32.908;2023-05-07T03:50:00;6.03;;;2.70;;
72584;SDS011;60618;40.084;32.908;2023-05-07T03:52:28;5.18;;;2.75;;
72584;SDS011;60618;40.084;32.908;2023-05-07T03:54:55;5.60;;;2.70;;
72584;SDS011;60618;40.084;32.908;2023-05-07T03:57:21;5.63;;;2.85;;
72584;SDS011;60618;40.084;32.908;2023-05-07T03:59:48;5.07;;;2.57;;
72584;SDS011;60618;40.084;32.908;2023-05-07T04:02:15;6.10;;;3.00;;
72584;SDS011;60618;40.084;32.908;2023-05-07T04:04:42;6.38;;;3.00;;
72584;SDS011;60618;40.084;32.908;2023-05-07T04:07:09;7.60;;;3.33;;
72584;SDS011;60618;40.084;32.908;2023-05-07T04:09:36;5.20;;;3.08;;
72584;SDS011;60618;40.084;32.908;2023-05-07T04:12:03;6.07;;;3.23;;
72584;SDS011;60618;40.084;32.908;2023-05-07T04:14:30;6.20;;;3.10;;
72584;SDS011;60618;40.084;32.908;2023-05-07T04:16:58;7.82;;;3.42;;
72584;SDS011;60618;40.084;32.908;2023-05-07T04:19:25;6.38;;;3.30;;
72584;SDS011;60618;40.084;32.908;2023-05-07T04:21:52;5.05;;;2.72;;
72584;SDS011;60618;40.084;32.908;2023-05-07T04:24:19;6.53;;;2.90;;
72584;SDS011;60618;40.084;32.908;2023-05-07T04:26:46;6.22;;;3.03;;
72584;SDS011;60618;40.084;32.908;2023-05-07T04:29:13;6.15;;;3.15;;
72584;SDS011;60618;40.084;32.908;2023-05-07T04:31:40;6.85;;;2.90;;
72584;SDS011;60618;40.084;32.908;2023-05-07T04:34:07;8.00;;;3.40;;
72584;SDS011;60618;40.084;32.908;2023-05-07T04:36:34;6.60;;;3.30;;
72584;SDS011;60618;40.084;32.908;2023-05-07T04:39:02;7.57;;;3.22;;
72584;SDS011;60618;40.084;32.908;2023-05-07T04:41:29;8.52;;;3.55;;
72584;SDS011;60618;40.084;32.908;2023-05-07T04:43:56;7.97;;;3.58;;
72584;SDS011;60618;40.084;32.908;2023-05-07T04:46:22;8.35;;;3.80;;
72584;SDS011;60618;40.084;32.908;2023-05-07T04:48:49;6.43;;;3.37;;
72584;SDS011;60618;40.084;32.908;2023-05-07T04:51:17;6.65;;;3.33;;
72584;SDS011;60618;40.084;32.908;2023-05-07T04:53:44;7.40;;;3.83;;
72584;SDS011;60618;40.084;32.908;2023-05-07T04:56:10;6.10;;;3.10;;
72584;SDS011;60618;40.084;32.908;2023-05-07T04:58:37;7.72;;;3.53;;
72584;SDS011;60618;40.084;32.908;2023-05-07T05:01:04;6.83;;;3.10;;
72584;SDS011;60618;40.084;32.908;2023-05-07T05:03:31;5.55;;;3.10;;
72584;SDS011;60618;40.084;32.908;2023-05-07T05:05:58;9.38;;;3.70;;
72584;SDS011;60618;40.084;32.908;2023-05-07T05:08:25;7.20;;;3.13;;
72584;SDS011;60618;40.084;32.908;2023-05-07T05:10:52;6.68;;;3.50;;
72584;SDS011;60618;40.084;32.908;2023-05-07T05:13:19;9.77;;;3.83;;
72584;SDS011;60618;40.084;32.908;2023-05-07T05:15:46;7.55;;;3.15;;
72584;SDS011;60618;40.084;32.908;2023-05-07T05:18:13;7.30;;;3.28;;
72584;SDS011;60618;40.084;32.908;2023-05-07T05:20:40;8.02;;;3.92;;
72584;SDS011;60618;40.084;32.908;2023-05-07T05:23:07;7.72;;;3.70;;
72584;SDS011;60618;40.084;32.908;2023-05-07T05:25:34;6.37;;;3.33;;
72584;SDS011;60618;40.084;32.908;2023-05-07T05:28:01;6.32;;;3.50;;
72584;SDS011;60618;40.084;32.908;2023-05-07T05:30:28;6.97;;;3.35;;
72584;SDS011;60618;40.084;32.908;2023-05-07T05:32:55;6.03;;;3.35;;
72584;SDS011;60618;40.084;32.908;2023-05-07T05:35:22;6.32;;;3.10;;
72584;SDS011;60618;40.084;32.908;2023-05-07T05:37:49;6.23;;;2.97;;
72584;SDS011;60618;40.084;32.908;2023-05-07T05:40:16;5.82;;;3.00;;
72584;SDS011;60618;40.084;32.908;2023-05-07T05:42:42;7.40;;;3.05;;
72584;SDS011;60618;40.084;32.908;2023-05-07T05:45:09;6.53;;;2.70;;
72584;SDS011;60618;40.084;32.908;2023-05-07T05:47:37;5.97;;;2.90;;
72584;SDS011;60618;40.084;32.908;2023-05-07T05:50:05;5.50;;;2.50;;
72584;SDS011;60618;40.084;32.908;2023-05-07T05:52:33;5.50;;;2.70;;
72584;SDS011;60618;40.084;32.908;2023-05-07T05:55:00;5.97;;;2.95;;
72584;SDS011;60618;40.084;32.908;2023-05-07T05:57:27;6.03;;;2.97;;
72584;SDS011;60618;40.084;32.908;2023-05-07T05:59:56;8.93;;;3.00;;
72584;SDS011;60618;40.084;32.908;2023-05-07T06:02:25;6.00;;;3.10;;
72584;SDS011;60618;40.084;32.908;2023-05-07T06:04:52;6.22;;;2.83;;
72584;SDS011;60618;40.084;32.908;2023-05-07T06:07:19;7.03;;;3.10;;
72584;SDS011;60618;40.084;32.908;2023-05-07T06:09:46;7.10;;;3.30;;
72584;SDS011;60618;40.084;32.908;2023-05-07T06:12:16;6.43;;;3.00;;
72584;SDS011;60618;40.084;32.908;2023-05-07T06:14:43;7.73;;;2.90;;
72584;SDS011;60618;40.084;32.908;2023-05-07T06:17:10;7.72;;;3.00;;
72584;SDS011;60618;40.084;32.908;2023-05-07T06:19:40;7.38;;;2.90;;
72584;SDS011;60618;40.084;32.908;2023-05-07T06:22:07;6.13;;;2.97;;
72584;SDS011;60618;40.084;32.908;2023-05-07T06:24:34;6.85;;;3.05;;
72584;SDS011;60618;40.084;32.908;2023-05-07T06:27:01;7.83;;;3.13;;
72584;SDS011;60618;40.084;32.908;2023-05-07T06:29:28;7.60;;;3.30;;
72584;SDS011;60618;40.084;32.908;2023-05-07T06:31:55;5.03;;;2.90;;
72584;SDS011;60618;40.084;32.908;2023-05-07T06:34:22;6.15;;;2.63;;
72584;SDS011;60618;40.084;32.908;2023-05-07T06:36:49;5.68;;;2.70;;
72584;SDS011;60618;40.084;32.908;2023-05-07T06:39:16;6.60;;;2.70;;
72584;SDS011;60618;40.084;32.908;2023-05-07T06:41:43;6.55;;;2.83;;
72584;SDS011;60618;40.084;32.908;2023-05-07T06:44:10;6.43;;;2.70;;
72584;SDS011;60618;40.084;32.908;2023-05-07T06:46:37;5.95;;;2.80;;
72584;SDS011;60618;40.084;32.908;2023-05-07T06:49:04;6.10;;;2.85;;
72584;SDS011;60618;40.084;32.908;2023-05-07T06:51:31;7.83;;;2.80;;
72584;SDS011;60618;40.084;32.908;2023-05-07T06:53:58;7.28;;;2.50;;
72584;SDS011;60618;40.084;32.908;2023-05-07T06:56:25;6.50;;;2.90;;
72584;SDS011;60618;40.084;32.908;2023-05-07T06:58:52;8.27;;;2.88;;
72584;SDS011;60618;40.084;32.908;2023-05-07T07:01:19;5.88;;;2.42;;
72584;SDS011;60618;40.084;32.908;2023-05-07T07:03:46;5.37;;;2.63;;
72584;SDS011;60618;40.084;32.908;2023-05-07T07:06:13;5.20;;;2.72;;
72584;SDS011;60618;40.084;32.908;2023-05-07T07:08:40;7.72;;;3.30;;
72584;SDS011;60618;40.084;32.908;2023-05-07T07:11:07;6.03;;;2.67;;
72584;SDS011;60618;40.084;32.908;2023-05-07T07:13:35;6.03;;;3.10;;
72584;SDS011;60618;40.084;32.908;2023-05-07T07:16:02;6.37;;;2.87;;
72584;SDS011;60618;40.084;32.908;2023-05-07T07:18:29;5.38;;;2.70;;
72584;SDS011;60618;40.084;32.908;2023-05-07T07:20:56;6.00;;;2.63;;
72584;SDS011;60618;40.084;32.908;2023-05-07T07:23:24;5.20;;;2.60;;
72584;SDS011;60618;40.084;32.908;2023-05-07T07:25:51;5.97;;;2.50;;
72584;SDS011;60618;40.084;32.908;2023-05-07T07:28:20;6.40;;;2.30;;
72584;SDS011;60618;40.084;32.908;2023-05-07T07:30:48;4.88;;;2.20;;
72584;SDS011;60618;40.084;32.908;2023-05-07T07:33:17;5.05;;;2.05;;
72584;SDS011;60618;40.084;32.908;2023-05-07T07:35:44;5.50;;;1.95;;
72584;SDS011;60618;40.084;32.908;2023-05-07T07:38:11;5.03;;;2.20;;
72584;SDS011;60618;40.084;32.908;2023-05-07T07:40:38;4.30;;;1.93;;
72584;SDS011;60618;40.084;32.908;2023-05-07T07:43:05;6.53;;;2.20;;
72584;SDS011;60618;40.084;32.908;2023-05-07T07:45:32;5.43;;;2.15;;
72584;SDS011;60618;40.084;32.908;2023-05-07T07:47:59;4.28;;;1.70;;
72584;SDS011;60618;40.084;32.908;2023-05-07T07:50:26;4.45;;;2.00;;
72584;SDS011;60618;40.084;32.908;2023-05-07T07:53:10;4.13;;;1.63;;
72584;SDS011;60618;40.084;32.908;2023-05-07T07:55:40;4.00;;;1.80;;
72584;SDS011;60618;40.084;32.908;2023-05-07T07:58:07;5.15;;;1.80;;
72584;SDS011;60618;40.084;32.908;2023-05-07T08:00:34;5.20;;;1.73;;
72584;SDS011;60618;40.084;32.908;2023-05-07T08:03:01;4.53;;;1.80;;
72584;SDS011;60618;40.084;32.908;2023-05-07T08:05:28;3.70;;;1.70;;
72584;SDS011;60618;40.084;32.908;2023-05-07T08:07:58;3.97;;;1.50;;
72584;SDS011;60618;40.084;32.908;2023-05-07T08:10:25;4.90;;;1.60;;
72584;SDS011;60618;40.084;32.908;2023-05-07T08:12:52;3.85;;;1.40;;
72584;SDS011;60618;40.084;32.908;2023-05-07T08:15:19;5.30;;;1.42;;
72584;SDS011;60618;40.084;32.908;2023-05-07T08:17:47;3.93;;;1.40;;
72584;SDS011;60618;40.084;32.908;2023-05-07T08:20:14;4.00;;;1.65;;
72584;SDS011;60618;40.084;32.908;2023-05-07T08:22:41;3.58;;;1.40;;
72584;SDS011;60618;40.084;32.908;2023-05-07T08:25:08;3.70;;;1.40;;
72584;SDS011;60618;40.084;32.908;2023-05-07T08:27:35;3.95;;;1.30;;
72584;SDS011;60618;40.084;32.908;2023-05-07T08:30:03;22.57;;;4.00;;
72584;SDS011;60618;40.084;32.908;2023-05-07T08:32:30;9.63;;;1.60;;
72584;SDS011;60618;40.084;32.908;2023-05-07T08:34:57;3.80;;;1.40;;
72584;SDS011;60618;40.084;32.908;2023-05-07T08:37:24;76.70;;;8.32;;
72584;SDS011;60618;40.084;32.908;2023-05-07T08:39:51;13.82;;;2.45;;
72584;SDS011;60618;40.084;32.908;2023-05-07T08:42:18;5.13;;;1.43;;
72584;SDS011;60618;40.084;32.908;2023-05-07T08:44:49;5.18;;;1.77;;
72584;SDS011;60618;40.084;32.908;2023-05-07T08:47:18;5.82;;;1.80;;
72584;SDS011;60618;40.084;32.908;2023-05-07T08:49:47;4.28;;;1.60;;
72584;SDS011;60618;40.084;32.908;2023-05-07T08:52:14;5.10;;;1.88;;
72584;SDS011;60618;40.084;32.908;2023-05-07T08:54:41;5.63;;;2.33;;
72584;SDS011;60618;40.084;32.908;2023-05-07T08:57:09;8.07;;;3.10;;
72584;SDS011;60618;40.084;32.908;2023-05-07T08:59:39;6.05;;;2.70;;
72584;SDS011;60618;40.084;32.908;2023-05-07T09:02:06;5.85;;;2.20;;
72584;SDS011;60618;40.084;32.908;2023-05-07T09:04:39;5.72;;;2.92;;
72584;SDS011;60618;40.084;32.908;2023-05-07T09:07:06;5.80;;;2.60;;
72584;SDS011;60618;40.084;32.908;2023-05-07T09:09:33;5.20;;;1.95;;
72584;SDS011;60618;40.084;32.908;2023-05-07T09:12:00;3.83;;;1.60;;
72584;SDS011;60618;40.084;32.908;2023-05-07T09:14:27;4.00;;;1.50;;
72584;SDS011;60618;40.084;32.908;2023-05-07T09:16:55;4.63;;;1.83;;
72584;SDS011;60618;40.084;32.908;2023-05-07T09:19:23;8.27;;;4.30;;
72584;SDS011;60618;40.084;32.908;2023-05-07T09:22:03;8.35;;;3.33;;
72584;SDS011;60618;40.084;32.908;2023-05-07T09:24:31;6.47;;;3.20;;
72584;SDS011;60618;40.084;32.908;2023-05-07T09:26:58;5.57;;;2.53;;
72584;SDS011;60618;40.084;32.908;2023-05-07T09:29:26;4.68;;;2.25;;
72584;SDS011;60618;40.084;32.908;2023-05-07T09:31:58;9.73;;;3.10;;
72584;SDS011;60618;40.084;32.908;2023-05-07T09:34:28;5.32;;;1.70;;
72584;SDS011;60618;40.084;32.908;2023-05-07T09:36:59;4.95;;;1.75;;
72584;SDS011;60618;40.084;32.908;2023-05-07T09:40:02;3.70;;;1.30;;
72584;SDS011;60618;40.084;32.908;2023-05-07T09:42:28;3.47;;;1.40;;
72584;SDS011;60618;40.084;32.908;2023-05-07T09:44:55;3.43;;;1.37;;
72584;SDS011;60618;40.084;32.908;2023-05-07T09:47:23;4.38;;;1.73;;
72584;SDS011;60618;40.084;32.908;2023-05-07T09:49:52;3.42;;;1.30;;
72584;SDS011;60618;40.084;32.908;2023-05-07T09:52:23;3.97;;;1.50;;
72584;SDS011;60618;40.084;32.908;2023-05-07T09:54:50;4.82;;;1.60;;
72584;SDS011;60618;40.084;32.908;2023-05-07T09:57:18;4.37;;;1.70;;
72584;SDS011;60618;40.084;32.908;2023-05-07T09:59:46;4.18;;;1.52;;
72584;SDS011;60618;40.084;32.908;2023-05-07T10:02:15;6.05;;;1.70;;
72584;SDS011;60618;40.084;32.908;2023-05-07T10:04:46;5.13;;;1.67;;
72584;SDS011;60618;40.084;32.908;2023-05-07T10:07:14;4.70;;;1.73;;
72584;SDS011;60618;40.084;32.908;2023-05-07T10:09:42;5.23;;;1.60;;
72584;SDS011;60618;40.084;32.908;2023-05-07T10:12:10;5.07;;;1.70;;
72584;SDS011;60618;40.084;32.908;2023-05-07T10:14:38;5.20;;;1.50;;
72584;SDS011;60618;40.084;32.908;2023-05-07T10:17:05;5.60;;;1.60;;
72584;SDS011;60618;40.084;32.908;2023-05-07T10:19:33;5.07;;;1.50;;
72584;SDS011;60618;40.084;32.908;2023-05-07T10:22:03;4.80;;;1.60;;
72584;SDS011;60618;40.084;32.908;2023-05-07T10:24:32;4.35;;;1.33;;
72584;SDS011;60618;40.084;32.908;2023-05-07T10:27:04;4.70;;;1.77;;
72584;SDS011;60618;40.084;32.908;2023-05-07T10:32:29;4.63;;;1.30;;
72584;SDS011;60618;40.084;32.908;2023-05-07T10:35:06;3.90;;;1.30;;
72584;SDS011;60618;40.084;32.908;2023-05-07T10:37:38;4.85;;;1.40;;
72584;SDS011;60618;40.084;32.908;2023-05-07T10:40:06;3.83;;;1.48;;
72584;SDS011;60618;40.084;32.908;2023-05-07T10:42:36;4.18;;;1.40;;
72584;SDS011;60618;40.084;32.908;2023-05-07T10:45:15;3.53;;;1.50;;
72584;SDS011;60618;40.084;32.908;2023-05-07T10:51:17;4.65;;;1.60;;
72584;SDS011;60618;40.084;32.908;2023-05-07T10:53:47;4.78;;;1.20;;
72584;SDS011;60618;40.084;32.908;2023-05-07T10:58:44;3.92;;;1.20;;
72584;SDS011;60618;40.084;32.908;2023-05-07T11:01:11;3.70;;;1.13;;
72584;SDS011;60618;40.084;32.908;2023-05-07T11:04:13;4.55;;;1.08;;
72584;SDS011;60618;40.084;32.908;2023-05-07T11:06:40;3.42;;;1.20;;
72584;SDS011;60618;40.084;32.908;2023-05-07T11:09:07;5.55;;;1.50;;
72584;SDS011;60618;40.084;32.908;2023-05-07T11:11:44;3.65;;;1.17;;
72584;SDS011;60618;40.084;32.908;2023-05-07T11:14:59;3.10;;;1.23;;
72584;SDS011;60618;40.084;32.908;2023-05-07T11:17:09;4.45;;;1.10;;
72584;SDS011;60618;40.084;32.908;2023-05-07T11:22:51;3.70;;;1.40;;
72584;SDS011;60618;40.084;32.908;2023-05-07T11:25:10;4.25;;;1.40;;
72584;SDS011;60618;40.084;32.908;2023-05-07T11:27:44;3.57;;;1.60;;
72584;SDS011;60618;40.084;32.908;2023-05-07T11:30:18;5.00;;;1.40;;
72584;SDS011;60618;40.084;32.908;2023-05-07T11:32:47;4.90;;;1.20;;
72584;SDS011;60618;40.084;32.908;2023-05-07T11:35:16;4.95;;;1.45;;
72584;SDS011;60618;40.084;32.908;2023-05-07T11:37:44;4.65;;;1.50;;
72584;SDS011;60618;40.084;32.908;2023-05-07T11:40:13;11.10;;;1.70;;
72584;SDS011;60618;40.084;32.908;2023-05-07T11:42:43;4.32;;;1.58;;
72584;SDS011;60618;40.084;32.908;2023-05-07T11:45:10;5.35;;;1.58;;
72584;SDS011;60618;40.084;32.908;2023-05-07T11:47:38;4.85;;;1.40;;
72584;SDS011;60618;40.084;32.908;2023-05-07T11:50:08;9.52;;;1.90;;
72584;SDS011;60618;40.084;32.908;2023-05-07T11:52:35;4.33;;;1.70;;
72584;SDS011;60618;40.084;32.908;2023-05-07T11:55:02;6.18;;;1.67;;
72584;SDS011;60618;40.084;32.908;2023-05-07T11:57:30;5.63;;;1.70;;
72584;SDS011;60618;40.084;32.908;2023-05-07T11:59:59;4.60;;;1.80;;
72584;SDS011;60618;40.084;32.908;2023-05-07T12:02:27;4.63;;;1.58;;
72584;SDS011;60618;40.084;32.908;2023-05-07T12:04:54;5.67;;;1.90;;
72584;SDS011;60618;40.084;32.908;2023-05-07T12:07:21;4.93;;;1.75;;
72584;SDS011;60618;40.084;32.908;2023-05-07T12:09:50;4.82;;;2.10;;
72584;SDS011;60618;40.084;32.908;2023-05-07T12:12:18;4.13;;;1.70;;
72584;SDS011;60618;40.084;32.908;2023-05-07T12:14:45;4.53;;;1.83;;
72584;SDS011;60618;40.084;32.908;2023-05-07T12:17:13;5.50;;;2.00;;
72584;SDS011;60618;40.084;32.908;2023-05-07T12:19:41;5.60;;;1.80;;
72584;SDS011;60618;40.084;32.908;2023-05-07T12:22:09;4.72;;;2.00;;
72584;SDS011;60618;40.084;32.908;2023-05-07T12:27:10;5.80;;;2.22;;
72584;SDS011;60618;40.084;32.908;2023-05-07T12:29:37;4.40;;;1.57;;
72584;SDS011;60618;40.084;32.908;2023-05-07T12:32:04;5.13;;;1.90;;
72584;SDS011;60618;40.084;32.908;2023-05-07T12:34:35;5.32;;;2.20;;
72584;SDS011;60618;40.084;32.908;2023-05-07T12:37:03;5.90;;;1.80;;
72584;SDS011;60618;40.084;32.908;2023-05-07T12:39:30;7.30;;;2.00;;
72584;SDS011;60618;40.084;32.908;2023-05-07T12:41:58;4.97;;;1.80;;
72584;SDS011;60618;40.084;32.908;2023-05-07T12:44:30;4.95;;;2.10;;
72584;SDS011;60618;40.084;32.908;2023-05-07T12:47:03;5.22;;;2.03;;
72584;SDS011;60618;40.084;32.908;2023-05-07T12:49:30;5.47;;;2.08;;
72584;SDS011;60618;40.084;32.908;2023-05-07T12:51:57;4.90;;;1.83;;
72584;SDS011;60618;40.084;32.908;2023-05-07T12:54:31;5.00;;;2.10;;
72584;SDS011;60618;40.084;32.908;2023-05-07T12:57:06;4.57;;;1.80;;
72584;SDS011;60618;40.084;32.908;2023-05-07T12:59:35;5.05;;;2.00;;
72584;SDS011;60618;40.084;32.908;2023-05-07T13:02:06;4.82;;;1.70;;
72584;SDS011;60618;40.084;32.908;2023-05-07T13:04:37;6.28;;;1.77;;
72584;SDS011;60618;40.084;32.908;2023-05-07T13:07:04;6.80;;;1.77;;
72584;SDS011;60618;40.084;32.908;2023-05-07T13:09:35;4.20;;;1.90;;
72584;SDS011;60618;40.084;32.908;2023-05-07T13:12:05;4.63;;;2.08;;
72584;SDS011;60618;40.084;32.908;2023-05-07T13:14:32;4.45;;;1.50;;
72584;SDS011;60618;40.084;32.908;2023-05-07T13:16:59;5.03;;;1.70;;
72584;SDS011;60618;40.084;32.908;2023-05-07T13:19:26;4.47;;;1.70;;
72584;SDS011;60618;40.084;32.908;2023-05-07T13:21:56;5.35;;;1.85;;
72584;SDS011;60618;40.084;32.908;2023-05-07T13:24:23;4.78;;;1.60;;
72584;SDS011;60618;40.084;32.908;2023-05-07T13:26:50;4.10;;;1.60;;
72584;SDS011;60618;40.084;32.908;2023-05-07T13:29:17;4.65;;;1.52;;
72584;SDS011;60618;40.084;32.908;2023-05-07T13:31:44;5.47;;;1.37;;
72584;SDS011;60618;40.084;32.908;2023-05-07T13:34:13;5.10;;;1.50;;
72584;SDS011;60618;40.084;32.908;2023-05-07T13:36:40;4.05;;;1.63;;
72584;SDS011;60618;40.084;32.908;2023-05-07T13:39:07;4.82;;;1.20;;
72584;SDS011;60618;40.084;32.908;2023-05-07T13:41:37;6.15;;;1.10;;
72584;SDS011;60618;40.084;32.908;2023-05-07T13:44:05;3.03;;;1.03;;
72584;SDS011;60618;40.084;32.908;2023-05-07T13:46:34;4.93;;;1.10;;
72584;SDS011;60618;40.084;32.908;2023-05-07T13:49:04;4.07;;;1.00;;
72584;SDS011;60618;40.084;32.908;2023-05-07T13:51:35;3.40;;;1.00;;
72584;SDS011;60618;40.084;32.908;2023-05-07T13:54:02;4.20;;;1.20;;
72584;SDS011;60618;40.084;32.908;2023-05-07T13:56:29;3.20;;;1.00;;
72584;SDS011;60618;40.084;32.908;2023-05-07T13:58:56;3.40;;;1.20;;
72584;SDS011;60618;40.084;32.908;2023-05-07T14:01:26;3.42;;;1.02;;
72584;SDS011;60618;40.084;32.908;2023-05-07T14:03:56;3.90;;;1.10;;
72584;SDS011;60618;40.084;32.908;2023-05-07T14:06:24;3.95;;;0.90;;
72584;SDS011;60618;40.084;32.908;2023-05-07T14:08:53;2.70;;;0.80;;
72584;SDS011;60618;40.084;32.908;2023-05-07T14:11:23;3.03;;;0.80;;
72584;SDS011;60618;40.084;32.908;2023-05-07T14:13:53;3.17;;;0.80;;
72584;SDS011;60618;40.084;32.908;2023-05-07T14:16:20;3.95;;;0.80;;
72584;SDS011;60618;40.084;32.908;2023-05-07T14:18:47;2.95;;;0.80;;
72584;SDS011;60618;40.084;32.908;2023-05-07T14:21:14;5.50;;;1.10;;
72584;SDS011;60618;40.084;32.908;2023-05-07T14:23:41;2.97;;;0.80;;
72584;SDS011;60618;40.084;32.908;2023-05-07T14:26:10;4.00;;;0.90;;
72584;SDS011;60618;40.084;32.908;2023-05-07T14:28:37;2.63;;;0.80;;
72584;SDS011;60618;40.084;32.908;2023-05-07T14:31:05;2.63;;;0.75;;
72584;SDS011;60618;40.084;32.908;2023-05-07T14:33:32;4.07;;;0.80;;
72584;SDS011;60618;40.084;32.908;2023-05-07T14:35:59;3.10;;;0.70;;
72584;SDS011;60618;40.084;32.908;2023-05-07T14:38:26;3.03;;;0.70;;
72584;SDS011;60618;40.084;32.908;2023-05-07T14:40:52;2.90;;;0.70;;
72584;SDS011;60618;40.084;32.908;2023-05-07T14:43:20;2.70;;;0.70;;
72584;SDS011;60618;40.084;32.908;2023-05-07T14:45:47;2.37;;;0.67;;
72584;SDS011;60618;40.084;32.908;2023-05-07T14:48:14;2.55;;;0.70;;
72584;SDS011;60618;40.084;32.908;2023-05-07T14:50:41;2.50;;;0.70;;
72584;SDS011;60618;40.084;32.908;2023-05-07T14:53:11;4.38;;;0.90;;